sensor_id;sensor_type;location;lat;lon;timestamp;P1;durP1;ratioP1;P2;durP2;ratioP2
68700;SDS011;55682;51.114;5.882;2023-05-10T00:01:56;10.35;;;10.12;;
68700;SDS011;55682;51.114;5.882;2023-05-10T00:04:21;10.26;;;9.98;;
68700;SDS011;55682;51.114;5.882;2023-05-10T00:06:47;10.83;;;10.56;;
68700;SDS011;55682;51.114;5.882;2023-05-10T00:09:13;10.51;;;10.28;;
68700;SDS011;55682;51.114;5.882;2023-05-10T00:11:38;10.88;;;10.62;;
68700;SDS011;55682;51.114;5.882;2023-05-10T00:14:04;10.66;;;10.45;;
68700;SDS011;55682;51.114;5.882;2023-05-10T00:16:30;9.87;;;9.74;;
68700;SDS011;55682;51.114;5.882;2023-05-10T00:18:55;9.83;;;9.68;;
68700;SDS011;55682;51.114;5.882;2023-05-10T00:21:21;10.17;;;9.89;;
68700;SDS011;55682;51.114;5.882;2023-05-10T00:23:47;10.38;;;10.14;;
68700;SDS011;55682;51.114;5.882;2023-05-10T00:26:12;10.22;;;10.02;;
68700;SDS011;55682;51.114;5.882;2023-05-10T00:28:41;9.79;;;9.68;;
68700;SDS011;55682;51.114;5.882;2023-05-10T00:31:06;9.54;;;9.41;;
68700;SDS011;55682;51.114;5.882;2023-05-10T00:33:32;9.32;;;9.13;;
68700;SDS011;55682;51.114;5.882;2023-05-10T00:35:58;9.14;;;9.05;;
68700;SDS011;55682;51.114;5.882;2023-05-10T00:38:23;8.85;;;8.79;;
68700;SDS011;55682;51.114;5.882;2023-05-10T00:40:49;8.67;;;8.58;;
68700;SDS011;55682;51.114;5.882;2023-05-10T00:43:22;8.50;;;8.29;;
68700;SDS011;55682;51.114;5.882;2023-05-10T00:45:48;8.63;;;8.34;;
68700;SDS011;55682;51.114;5.882;2023-05-10T00:48:15;8.61;;;8.49;;
68700;SDS011;55682;51.114;5.882;2023-05-10T00:50:40;7.93;;;7.86;;
68700;SDS011;55682;51.114;5.882;2023-05-10T00:53:07;7.98;;;7.92;;
68700;SDS011;55682;51.114;5.882;2023-05-10T00:55:33;7.80;;;7.74;;
68700;SDS011;55682;51.114;5.882;2023-05-10T00:57:59;8.20;;;8.05;;
68700;SDS011;55682;51.114;5.882;2023-05-10T01:00:24;7.95;;;7.87;;
68700;SDS011;55682;51.114;5.882;2023-05-10T01:02:50;7.86;;;7.78;;
68700;SDS011;55682;51.114;5.882;2023-05-10T01:05:19;8.31;;;8.16;;
68700;SDS011;55682;51.114;5.882;2023-05-10T01:07:44;8.49;;;8.37;;
68700;SDS011;55682;51.114;5.882;2023-05-10T01:10:10;8.53;;;8.45;;
68700;SDS011;55682;51.114;5.882;2023-05-10T01:12:37;8.67;;;8.51;;
68700;SDS011;55682;51.114;5.882;2023-05-10T01:15:05;8.67;;;8.48;;
68700;SDS011;55682;51.114;5.882;2023-05-10T01:17:33;8.18;;;8.13;;
68700;SDS011;55682;51.114;5.882;2023-05-10T01:20:03;8.95;;;8.85;;
68700;SDS011;55682;51.114;5.882;2023-05-10T01:36:25;9.16;;;9.02;;
68700;SDS011;55682;51.114;5.882;2023-05-10T01:42:09;8.95;;;8.84;;
68700;SDS011;55682;51.114;5.882;2023-05-10T01:47:21;9.06;;;8.90;;
68700;SDS011;55682;51.114;5.882;2023-05-10T01:50:10;9.04;;;8.92;;
68700;SDS011;55682;51.114;5.882;2023-05-10T01:52:44;9.35;;;9.21;;
68700;SDS011;55682;51.114;5.882;2023-05-10T01:55:18;9.24;;;9.14;;
68700;SDS011;55682;51.114;5.882;2023-05-10T01:57:50;9.55;;;9.44;;
68700;SDS011;55682;51.114;5.882;2023-05-10T02:00:31;9.89;;;9.73;;
68700;SDS011;55682;51.114;5.882;2023-05-10T02:02:58;9.95;;;9.78;;
68700;SDS011;55682;51.114;5.882;2023-05-10T02:05:26;10.38;;;10.23;;
68700;SDS011;55682;51.114;5.882;2023-05-10T02:07:56;10.14;;;10.02;;
68700;SDS011;55682;51.114;5.882;2023-05-10T02:10:25;10.65;;;10.52;;
68700;SDS011;55682;51.114;5.882;2023-05-10T02:12:53;10.63;;;10.42;;
68700;SDS011;55682;51.114;5.882;2023-05-10T02:15:24;10.90;;;10.64;;
68700;SDS011;55682;51.114;5.882;2023-05-10T02:17:52;10.73;;;10.61;;
68700;SDS011;55682;51.114;5.882;2023-05-10T02:20:20;11.01;;;10.81;;
68700;SDS011;55682;51.114;5.882;2023-05-10T02:22:50;10.58;;;10.40;;
68700;SDS011;55682;51.114;5.882;2023-05-10T02:25:19;11.40;;;11.16;;
68700;SDS011;55682;51.114;5.882;2023-05-10T02:27:48;10.39;;;10.34;;
68700;SDS011;55682;51.114;5.882;2023-05-10T02:30:16;10.57;;;10.52;;
68700;SDS011;55682;51.114;5.882;2023-05-10T02:32:44;10.69;;;10.60;;
68700;SDS011;55682;51.114;5.882;2023-05-10T02:35:11;10.91;;;10.73;;
68700;SDS011;55682;51.114;5.882;2023-05-10T02:37:38;11.01;;;10.91;;
68700;SDS011;55682;51.114;5.882;2023-05-10T02:40:05;11.09;;;10.90;;
68700;SDS011;55682;51.114;5.882;2023-05-10T02:42:35;10.45;;;10.35;;
68700;SDS011;55682;51.114;5.882;2023-05-10T02:45:05;10.38;;;10.36;;
68700;SDS011;55682;51.114;5.882;2023-05-10T02:47:35;10.50;;;10.40;;
68700;SDS011;55682;51.114;5.882;2023-05-10T02:50:01;10.39;;;10.33;;
68700;SDS011;55682;51.114;5.882;2023-05-10T02:52:33;10.16;;;10.07;;
68700;SDS011;55682;51.114;5.882;2023-05-10T02:55:05;9.96;;;9.86;;
68700;SDS011;55682;51.114;5.882;2023-05-10T02:57:34;9.24;;;9.17;;
68700;SDS011;55682;51.114;5.882;2023-05-10T03:00:08;9.65;;;9.55;;
68700;SDS011;55682;51.114;5.882;2023-05-10T03:02:34;9.46;;;9.43;;
68700;SDS011;55682;51.114;5.882;2023-05-10T03:05:01;8.93;;;8.91;;
68700;SDS011;55682;51.114;5.882;2023-05-10T03:07:28;9.03;;;9.00;;
68700;SDS011;55682;51.114;5.882;2023-05-10T03:09:55;8.95;;;8.93;;
68700;SDS011;55682;51.114;5.882;2023-05-10T03:12:24;8.86;;;8.77;;
68700;SDS011;55682;51.114;5.882;2023-05-10T03:15:00;8.66;;;8.64;;
68700;SDS011;55682;51.114;5.882;2023-05-10T03:17:56;8.51;;;8.47;;
68700;SDS011;55682;51.114;5.882;2023-05-10T03:20:55;8.29;;;8.26;;
68700;SDS011;55682;51.114;5.882;2023-05-10T03:23:26;7.86;;;7.84;;
68700;SDS011;55682;51.114;5.882;2023-05-10T03:25:59;7.42;;;7.41;;
68700;SDS011;55682;51.114;5.882;2023-05-10T03:28:26;7.96;;;7.96;;
68700;SDS011;55682;51.114;5.882;2023-05-10T03:30:53;8.15;;;8.14;;
68700;SDS011;55682;51.114;5.882;2023-05-10T03:33:20;7.94;;;7.92;;
68700;SDS011;55682;51.114;5.882;2023-05-10T03:35:46;8.48;;;8.40;;
68700;SDS011;55682;51.114;5.882;2023-05-10T03:38:12;8.63;;;8.56;;
68700;SDS011;55682;51.114;5.882;2023-05-10T03:40:38;8.24;;;8.16;;
68700;SDS011;55682;51.114;5.882;2023-05-10T03:43:04;8.30;;;8.23;;
68700;SDS011;55682;51.114;5.882;2023-05-10T03:45:29;8.62;;;8.48;;
68700;SDS011;55682;51.114;5.882;2023-05-10T03:47:56;9.54;;;9.33;;
68700;SDS011;55682;51.114;5.882;2023-05-10T03:50:23;9.24;;;9.17;;
68700;SDS011;55682;51.114;5.882;2023-05-10T03:52:49;9.26;;;9.14;;
68700;SDS011;55682;51.114;5.882;2023-05-10T03:55:15;9.12;;;9.01;;
68700;SDS011;55682;51.114;5.882;2023-05-10T03:57:41;9.14;;;9.04;;
68700;SDS011;55682;51.114;5.882;2023-05-10T04:00:07;9.08;;;9.04;;
68700;SDS011;55682;51.114;5.882;2023-05-10T04:02:43;9.03;;;9.03;;
68700;SDS011;55682;51.114;5.882;2023-05-10T04:05:13;9.39;;;9.30;;
68700;SDS011;55682;51.114;5.882;2023-05-10T04:07:40;9.49;;;9.41;;
68700;SDS011;55682;51.114;5.882;2023-05-10T04:10:06;9.30;;;9.21;;
68700;SDS011;55682;51.114;5.882;2023-05-10T04:12:32;9.51;;;9.41;;
68700;SDS011;55682;51.114;5.882;2023-05-10T04:14:57;9.83;;;9.69;;
68700;SDS011;55682;51.114;5.882;2023-05-10T04:17:23;9.46;;;9.38;;
68700;SDS011;55682;51.114;5.882;2023-05-10T04:19:48;9.55;;;9.45;;
68700;SDS011;55682;51.114;5.882;2023-05-10T04:22:14;9.92;;;9.90;;
68700;SDS011;55682;51.114;5.882;2023-05-10T04:24:39;10.01;;;9.90;;
68700;SDS011;55682;51.114;5.882;2023-05-10T04:27:05;10.49;;;10.22;;
68700;SDS011;55682;51.114;5.882;2023-05-10T04:29:30;10.38;;;10.25;;
68700;SDS011;55682;51.114;5.882;2023-05-10T04:31:56;11.65;;;11.47;;
68700;SDS011;55682;51.114;5.882;2023-05-10T04:34:22;11.00;;;10.85;;
68700;SDS011;55682;51.114;5.882;2023-05-10T04:36:47;11.10;;;10.96;;
68700;SDS011;55682;51.114;5.882;2023-05-10T04:39:13;10.65;;;10.42;;
68700;SDS011;55682;51.114;5.882;2023-05-10T04:41:38;11.15;;;10.96;;
68700;SDS011;55682;51.114;5.882;2023-05-10T04:44:04;10.82;;;10.57;;
68700;SDS011;55682;51.114;5.882;2023-05-10T04:46:30;11.03;;;10.84;;
68700;SDS011;55682;51.114;5.882;2023-05-10T04:48:55;11.32;;;11.14;;
68700;SDS011;55682;51.114;5.882;2023-05-10T04:51:21;11.59;;;11.37;;
68700;SDS011;55682;51.114;5.882;2023-05-10T04:53:46;11.89;;;11.72;;
68700;SDS011;55682;51.114;5.882;2023-05-10T04:56:12;11.51;;;11.40;;
68700;SDS011;55682;51.114;5.882;2023-05-10T04:58:38;11.55;;;11.34;;
68700;SDS011;55682;51.114;5.882;2023-05-10T05:01:06;11.69;;;11.53;;
68700;SDS011;55682;51.114;5.882;2023-05-10T05:03:33;12.34;;;11.95;;
68700;SDS011;55682;51.114;5.882;2023-05-10T05:05:59;12.02;;;11.70;;
68700;SDS011;55682;51.114;5.882;2023-05-10T05:08:25;12.01;;;11.79;;
68700;SDS011;55682;51.114;5.882;2023-05-10T05:10:50;11.36;;;11.24;;
68700;SDS011;55682;51.114;5.882;2023-05-10T05:13:16;11.96;;;11.75;;
68700;SDS011;55682;51.114;5.882;2023-05-10T05:15:42;11.86;;;11.66;;
68700;SDS011;55682;51.114;5.882;2023-05-10T05:18:07;12.43;;;12.18;;
68700;SDS011;55682;51.114;5.882;2023-05-10T05:20:33;12.39;;;12.17;;
68700;SDS011;55682;51.114;5.882;2023-05-10T05:22:59;12.55;;;12.41;;
68700;SDS011;55682;51.114;5.882;2023-05-10T05:25:25;12.40;;;12.10;;
68700;SDS011;55682;51.114;5.882;2023-05-10T05:27:51;12.10;;;11.89;;
68700;SDS011;55682;51.114;5.882;2023-05-10T05:30:16;12.76;;;12.51;;
68700;SDS011;55682;51.114;5.882;2023-05-10T05:32:42;11.84;;;11.68;;
68700;SDS011;55682;51.114;5.882;2023-05-10T05:35:08;12.29;;;12.18;;
68700;SDS011;55682;51.114;5.882;2023-05-10T05:37:33;12.14;;;12.02;;
68700;SDS011;55682;51.114;5.882;2023-05-10T05:40:00;12.25;;;12.10;;
68700;SDS011;55682;51.114;5.882;2023-05-10T05:42:26;12.59;;;12.35;;
68700;SDS011;55682;51.114;5.882;2023-05-10T05:44:52;12.13;;;12.09;;
68700;SDS011;55682;51.114;5.882;2023-05-10T05:47:18;11.99;;;11.89;;
68700;SDS011;55682;51.114;5.882;2023-05-10T05:49:43;12.19;;;11.95;;
68700;SDS011;55682;51.114;5.882;2023-05-10T05:52:10;12.15;;;11.96;;
68700;SDS011;55682;51.114;5.882;2023-05-10T05:54:36;12.14;;;11.91;;
68700;SDS011;55682;51.114;5.882;2023-05-10T05:57:02;12.53;;;12.38;;
68700;SDS011;55682;51.114;5.882;2023-05-10T05:59:28;13.00;;;12.88;;
68700;SDS011;55682;51.114;5.882;2023-05-10T06:01:54;13.05;;;12.85;;
68700;SDS011;55682;51.114;5.882;2023-05-10T06:04:19;13.52;;;13.31;;
68700;SDS011;55682;51.114;5.882;2023-05-10T06:06:45;13.71;;;13.47;;
68700;SDS011;55682;51.114;5.882;2023-05-10T06:09:11;13.79;;;13.69;;
68700;SDS011;55682;51.114;5.882;2023-05-10T06:11:37;14.60;;;14.32;;
68700;SDS011;55682;51.114;5.882;2023-05-10T06:14:03;14.57;;;14.22;;
68700;SDS011;55682;51.114;5.882;2023-05-10T06:16:30;14.93;;;14.58;;
68700;SDS011;55682;51.114;5.882;2023-05-10T06:18:56;15.37;;;14.98;;
68700;SDS011;55682;51.114;5.882;2023-05-10T06:21:21;15.73;;;15.32;;
68700;SDS011;55682;51.114;5.882;2023-05-10T06:23:47;16.12;;;15.69;;
68700;SDS011;55682;51.114;5.882;2023-05-10T06:26:13;16.67;;;16.21;;
68700;SDS011;55682;51.114;5.882;2023-05-10T06:28:39;16.65;;;16.15;;
68700;SDS011;55682;51.114;5.882;2023-05-10T06:31:05;16.83;;;16.13;;
68700;SDS011;55682;51.114;5.882;2023-05-10T06:33:32;17.95;;;16.97;;
68700;SDS011;55682;51.114;5.882;2023-05-10T06:35:58;17.17;;;16.55;;
68700;SDS011;55682;51.114;5.882;2023-05-10T06:38:23;17.33;;;16.73;;
68700;SDS011;55682;51.114;5.882;2023-05-10T06:40:49;17.90;;;17.06;;
68700;SDS011;55682;51.114;5.882;2023-05-10T06:43:15;17.77;;;17.13;;
68700;SDS011;55682;51.114;5.882;2023-05-10T06:45:41;16.89;;;16.40;;
68700;SDS011;55682;51.114;5.882;2023-05-10T06:48:07;16.08;;;15.67;;
68700;SDS011;55682;51.114;5.882;2023-05-10T06:50:33;14.82;;;14.47;;
68700;SDS011;55682;51.114;5.882;2023-05-10T06:52:59;14.86;;;14.55;;
68700;SDS011;55682;51.114;5.882;2023-05-10T06:55:25;14.89;;;14.57;;
68700;SDS011;55682;51.114;5.882;2023-05-10T06:57:51;13.82;;;13.56;;
68700;SDS011;55682;51.114;5.882;2023-05-10T07:00:17;13.55;;;13.33;;
68700;SDS011;55682;51.114;5.882;2023-05-10T07:02:43;13.69;;;13.48;;
68700;SDS011;55682;51.114;5.882;2023-05-10T07:05:09;12.71;;;12.53;;
68700;SDS011;55682;51.114;5.882;2023-05-10T07:07:35;12.51;;;12.39;;
68700;SDS011;55682;51.114;5.882;2023-05-10T07:10:01;12.11;;;12.04;;
68700;SDS011;55682;51.114;5.882;2023-05-10T07:12:27;11.42;;;11.38;;
68700;SDS011;55682;51.114;5.882;2023-05-10T07:14:52;11.32;;;11.28;;
68700;SDS011;55682;51.114;5.882;2023-05-10T07:17:18;12.10;;;11.85;;
68700;SDS011;55682;51.114;5.882;2023-05-10T07:19:44;12.44;;;12.19;;
68700;SDS011;55682;51.114;5.882;2023-05-10T07:22:09;13.18;;;12.87;;
68700;SDS011;55682;51.114;5.882;2023-05-10T07:24:35;13.27;;;12.85;;
68700;SDS011;55682;51.114;5.882;2023-05-10T07:27:01;12.93;;;12.66;;
68700;SDS011;55682;51.114;5.882;2023-05-10T07:29:27;12.50;;;12.40;;
68700;SDS011;55682;51.114;5.882;2023-05-10T07:31:53;12.68;;;12.54;;
68700;SDS011;55682;51.114;5.882;2023-05-10T07:34:19;13.47;;;13.34;;
68700;SDS011;55682;51.114;5.882;2023-05-10T07:36:45;14.23;;;13.82;;
68700;SDS011;55682;51.114;5.882;2023-05-10T07:39:11;14.43;;;14.21;;
68700;SDS011;55682;51.114;5.882;2023-05-10T07:41:37;14.38;;;14.27;;
68700;SDS011;55682;51.114;5.882;2023-05-10T07:44:04;14.25;;;14.02;;
68700;SDS011;55682;51.114;5.882;2023-05-10T07:46:29;14.13;;;13.90;;
68700;SDS011;55682;51.114;5.882;2023-05-10T07:48:55;13.57;;;13.45;;
68700;SDS011;55682;51.114;5.882;2023-05-10T07:51:21;13.69;;;13.50;;
68700;SDS011;55682;51.114;5.882;2023-05-10T07:53:46;13.68;;;13.51;;
68700;SDS011;55682;51.114;5.882;2023-05-10T07:56:22;14.04;;;13.77;;
68700;SDS011;55682;51.114;5.882;2023-05-10T07:58:48;14.56;;;14.04;;
68700;SDS011;55682;51.114;5.882;2023-05-10T08:01:14;14.34;;;14.07;;
68700;SDS011;55682;51.114;5.882;2023-05-10T08:03:40;14.90;;;14.52;;
68700;SDS011;55682;51.114;5.882;2023-05-10T08:06:05;14.86;;;14.01;;
68700;SDS011;55682;51.114;5.882;2023-05-10T08:08:31;14.65;;;14.23;;
68700;SDS011;55682;51.114;5.882;2023-05-10T08:10:56;14.47;;;14.32;;
68700;SDS011;55682;51.114;5.882;2023-05-10T08:13:22;14.42;;;14.06;;
68700;SDS011;55682;51.114;5.882;2023-05-10T08:15:48;15.64;;;15.09;;
68700;SDS011;55682;51.114;5.882;2023-05-10T08:18:13;14.71;;;14.17;;
68700;SDS011;55682;51.114;5.882;2023-05-10T08:20:39;14.49;;;13.95;;
68700;SDS011;55682;51.114;5.882;2023-05-10T08:23:05;13.58;;;13.20;;
68700;SDS011;55682;51.114;5.882;2023-05-10T08:25:31;14.24;;;13.60;;
68700;SDS011;55682;51.114;5.882;2023-05-10T08:27:57;14.67;;;14.06;;
68700;SDS011;55682;51.114;5.882;2023-05-10T08:30:22;13.82;;;13.44;;
68700;SDS011;55682;51.114;5.882;2023-05-10T08:32:48;13.05;;;12.77;;
68700;SDS011;55682;51.114;5.882;2023-05-10T08:35:15;12.45;;;12.26;;
68700;SDS011;55682;51.114;5.882;2023-05-10T08:37:41;12.80;;;12.41;;
68700;SDS011;55682;51.114;5.882;2023-05-10T08:40:07;12.16;;;11.90;;
68700;SDS011;55682;51.114;5.882;2023-05-10T08:42:36;12.19;;;11.94;;
68700;SDS011;55682;51.114;5.882;2023-05-10T08:45:07;11.79;;;11.59;;
68700;SDS011;55682;51.114;5.882;2023-05-10T08:47:35;11.96;;;11.78;;
68700;SDS011;55682;51.114;5.882;2023-05-10T08:50:03;12.47;;;12.28;;
68700;SDS011;55682;51.114;5.882;2023-05-10T08:52:30;11.63;;;11.55;;
68700;SDS011;55682;51.114;5.882;2023-05-10T08:54:57;12.58;;;12.40;;
68700;SDS011;55682;51.114;5.882;2023-05-10T08:57:23;13.57;;;13.15;;
68700;SDS011;55682;51.114;5.882;2023-05-10T08:59:49;13.08;;;12.67;;
68700;SDS011;55682;51.114;5.882;2023-05-10T09:02:14;13.23;;;12.93;;
68700;SDS011;55682;51.114;5.882;2023-05-10T09:04:43;13.01;;;12.67;;
68700;SDS011;55682;51.114;5.882;2023-05-10T09:07:08;12.66;;;12.56;;
68700;SDS011;55682;51.114;5.882;2023-05-10T09:09:35;13.86;;;13.60;;
68700;SDS011;55682;51.114;5.882;2023-05-10T09:12:02;13.75;;;13.53;;
68700;SDS011;55682;51.114;5.882;2023-05-10T09:14:28;13.76;;;13.49;;
68700;SDS011;55682;51.114;5.882;2023-05-10T09:16:54;12.42;;;12.24;;
68700;SDS011;55682;51.114;5.882;2023-05-10T09:19:21;13.42;;;13.18;;
68700;SDS011;55682;51.114;5.882;2023-05-10T09:21:46;13.37;;;13.08;;
68700;SDS011;55682;51.114;5.882;2023-05-10T09:24:13;13.17;;;12.96;;
68700;SDS011;55682;51.114;5.882;2023-05-10T09:26:45;13.13;;;12.80;;
68700;SDS011;55682;51.114;5.882;2023-05-10T09:29:13;13.83;;;13.50;;
68700;SDS011;55682;51.114;5.882;2023-05-10T09:31:43;12.93;;;12.70;;
68700;SDS011;55682;51.114;5.882;2023-05-10T09:34:20;13.49;;;13.26;;
68700;SDS011;55682;51.114;5.882;2023-05-10T09:36:54;12.49;;;12.30;;
68700;SDS011;55682;51.114;5.882;2023-05-10T09:41:58;11.96;;;11.72;;
68700;SDS011;55682;51.114;5.882;2023-05-10T09:44:25;12.21;;;12.03;;
68700;SDS011;55682;51.114;5.882;2023-05-10T09:46:51;11.28;;;11.14;;
68700;SDS011;55682;51.114;5.882;2023-05-10T09:49:18;10.22;;;10.10;;
68700;SDS011;55682;51.114;5.882;2023-05-10T09:51:45;9.82;;;9.73;;
68700;SDS011;55682;51.114;5.882;2023-05-10T09:54:14;9.62;;;9.59;;
68700;SDS011;55682;51.114;5.882;2023-05-10T09:56:41;10.08;;;10.02;;
68700;SDS011;55682;51.114;5.882;2023-05-10T09:59:09;10.07;;;10.02;;
68700;SDS011;55682;51.114;5.882;2023-05-10T10:01:36;9.80;;;9.76;;
68700;SDS011;55682;51.114;5.882;2023-05-10T10:04:03;8.85;;;8.76;;
68700;SDS011;55682;51.114;5.882;2023-05-10T10:06:34;9.44;;;9.32;;
68700;SDS011;55682;51.114;5.882;2023-05-10T10:09:01;9.49;;;9.32;;
68700;SDS011;55682;51.114;5.882;2023-05-10T10:11:27;9.71;;;9.56;;
68700;SDS011;55682;51.114;5.882;2023-05-10T10:13:53;10.05;;;9.93;;
68700;SDS011;55682;51.114;5.882;2023-05-10T10:16:20;9.46;;;9.34;;
68700;SDS011;55682;51.114;5.882;2023-05-10T10:18:46;9.76;;;9.70;;
68700;SDS011;55682;51.114;5.882;2023-05-10T10:21:13;9.87;;;9.74;;
68700;SDS011;55682;51.114;5.882;2023-05-10T10:23:40;10.37;;;10.08;;
68700;SDS011;55682;51.114;5.882;2023-05-10T10:26:05;10.55;;;10.29;;
68700;SDS011;55682;51.114;5.882;2023-05-10T10:36:32;7.37;;;7.24;;
68700;SDS011;55682;51.114;5.882;2023-05-10T10:39:08;7.04;;;7.02;;
68700;SDS011;55682;51.114;5.882;2023-05-10T10:41:36;7.51;;;7.40;;
68700;SDS011;55682;51.114;5.882;2023-05-10T10:52:38;7.86;;;7.81;;
68700;SDS011;55682;51.114;5.882;2023-05-10T10:55:06;7.65;;;7.64;;
68700;SDS011;55682;51.114;5.882;2023-05-10T10:57:54;7.33;;;7.29;;
68700;SDS011;55682;51.114;5.882;2023-05-10T11:05:38;7.49;;;7.47;;
68700;SDS011;55682;51.114;5.882;2023-05-10T11:08:07;7.98;;;7.95;;
68700;SDS011;55682;51.114;5.882;2023-05-10T11:10:53;7.72;;;7.71;;
68700;SDS011;55682;51.114;5.882;2023-05-10T11:13:42;7.26;;;7.26;;
68700;SDS011;55682;51.114;5.882;2023-05-10T11:21:18;6.63;;;6.63;;
68700;SDS011;55682;51.114;5.882;2023-05-10T11:26:12;6.79;;;6.76;;
68700;SDS011;55682;51.114;5.882;2023-05-10T11:28:42;6.52;;;6.49;;
68700;SDS011;55682;51.114;5.882;2023-05-10T11:31:09;6.18;;;6.12;;
68700;SDS011;55682;51.114;5.882;2023-05-10T11:33:44;5.69;;;5.67;;
68700;SDS011;55682;51.114;5.882;2023-05-10T11:36:14;5.86;;;5.82;;
68700;SDS011;55682;51.114;5.882;2023-05-10T11:38:45;5.51;;;5.50;;
68700;SDS011;55682;51.114;5.882;2023-05-10T11:41:12;5.50;;;5.47;;
68700;SDS011;55682;51.114;5.882;2023-05-10T11:43:38;5.56;;;5.55;;
68700;SDS011;55682;51.114;5.882;2023-05-10T11:46:06;5.71;;;5.71;;
68700;SDS011;55682;51.114;5.882;2023-05-10T11:48:32;6.14;;;6.14;;
68700;SDS011;55682;51.114;5.882;2023-05-10T11:50:58;5.99;;;5.89;;
68700;SDS011;55682;51.114;5.882;2023-05-10T11:53:27;5.93;;;5.89;;
68700;SDS011;55682;51.114;5.882;2023-05-10T11:55:54;5.82;;;5.82;;
68700;SDS011;55682;51.114;5.882;2023-05-10T11:58:20;5.47;;;5.47;;
68700;SDS011;55682;51.114;5.882;2023-05-10T12:00:47;5.33;;;5.33;;
68700;SDS011;55682;51.114;5.882;2023-05-10T12:03:14;4.75;;;4.75;;
68700;SDS011;55682;51.114;5.882;2023-05-10T12:05:39;5.76;;;5.71;;
68700;SDS011;55682;51.114;5.882;2023-05-10T12:08:10;5.76;;;5.75;;
68700;SDS011;55682;51.114;5.882;2023-05-10T12:10:40;6.00;;;5.97;;
68700;SDS011;55682;51.114;5.882;2023-05-10T12:13:10;5.92;;;5.86;;
68700;SDS011;55682;51.114;5.882;2023-05-10T12:15:38;5.71;;;5.60;;
68700;SDS011;55682;51.114;5.882;2023-05-10T12:18:03;6.46;;;6.46;;
68700;SDS011;55682;51.114;5.882;2023-05-10T12:20:30;6.92;;;6.89;;
68700;SDS011;55682;51.114;5.882;2023-05-10T12:22:57;6.52;;;6.52;;
68700;SDS011;55682;51.114;5.882;2023-05-10T12:25:24;6.40;;;6.35;;
68700;SDS011;55682;51.114;5.882;2023-05-10T12:27:56;6.42;;;6.39;;
68700;SDS011;55682;51.114;5.882;2023-05-10T12:32:49;7.47;;;7.30;;
68700;SDS011;55682;51.114;5.882;2023-05-10T12:35:15;6.95;;;6.76;;
68700;SDS011;55682;51.114;5.882;2023-05-10T12:37:42;6.79;;;6.58;;
68700;SDS011;55682;51.114;5.882;2023-05-10T12:40:09;7.87;;;7.81;;
68700;SDS011;55682;51.114;5.882;2023-05-10T12:42:36;6.64;;;6.61;;
68700;SDS011;55682;51.114;5.882;2023-05-10T12:45:04;6.33;;;6.33;;
68700;SDS011;55682;51.114;5.882;2023-05-10T12:47:33;6.25;;;6.24;;
68700;SDS011;55682;51.114;5.882;2023-05-10T12:49:59;6.82;;;6.79;;
68700;SDS011;55682;51.114;5.882;2023-05-10T12:52:27;6.43;;;6.36;;
68700;SDS011;55682;51.114;5.882;2023-05-10T12:54:53;6.50;;;6.45;;
68700;SDS011;55682;51.114;5.882;2023-05-10T12:57:20;6.97;;;6.89;;
68700;SDS011;55682;51.114;5.882;2023-05-10T12:59:46;5.84;;;5.79;;
68700;SDS011;55682;51.114;5.882;2023-05-10T13:02:11;5.15;;;5.15;;
68700;SDS011;55682;51.114;5.882;2023-05-10T13:04:38;5.68;;;5.68;;
68700;SDS011;55682;51.114;5.882;2023-05-10T13:07:07;4.53;;;4.53;;
68700;SDS011;55682;51.114;5.882;2023-05-10T13:09:34;5.42;;;5.42;;
68700;SDS011;55682;51.114;5.882;2023-05-10T13:12:00;6.03;;;5.98;;
68700;SDS011;55682;51.114;5.882;2023-05-10T13:14:25;6.49;;;6.38;;
68700;SDS011;55682;51.114;5.882;2023-05-10T13:16:51;5.27;;;5.26;;
68700;SDS011;55682;51.114;5.882;2023-05-10T13:19:17;5.74;;;5.73;;
68700;SDS011;55682;51.114;5.882;2023-05-10T13:21:43;5.82;;;5.81;;
68700;SDS011;55682;51.114;5.882;2023-05-10T13:24:10;6.03;;;5.99;;
68700;SDS011;55682;51.114;5.882;2023-05-10T13:26:39;6.54;;;6.45;;
68700;SDS011;55682;51.114;5.882;2023-05-10T13:29:05;6.80;;;6.73;;
68700;SDS011;55682;51.114;5.882;2023-05-10T13:31:31;6.99;;;6.96;;
68700;SDS011;55682;51.114;5.882;2023-05-10T13:33:58;6.15;;;6.15;;
68700;SDS011;55682;51.114;5.882;2023-05-10T13:36:23;5.92;;;5.88;;
68700;SDS011;55682;51.114;5.882;2023-05-10T13:38:49;6.31;;;6.20;;
68700;SDS011;55682;51.114;5.882;2023-05-10T13:41:14;6.23;;;6.14;;
68700;SDS011;55682;51.114;5.882;2023-05-10T13:43:40;5.30;;;5.30;;
68700;SDS011;55682;51.114;5.882;2023-05-10T13:46:06;5.73;;;5.73;;
68700;SDS011;55682;51.114;5.882;2023-05-10T13:48:31;5.55;;;5.55;;
68700;SDS011;55682;51.114;5.882;2023-05-10T13:50:57;5.90;;;5.90;;
68700;SDS011;55682;51.114;5.882;2023-05-10T13:53:22;5.60;;;5.56;;
68700;SDS011;55682;51.114;5.882;2023-05-10T13:55:48;5.48;;;5.33;;
68700;SDS011;55682;51.114;5.882;2023-05-10T13:58:14;5.72;;;5.61;;
68700;SDS011;55682;51.114;5.882;2023-05-10T14:00:39;5.63;;;5.50;;
68700;SDS011;55682;51.114;5.882;2023-05-10T14:03:05;5.16;;;5.10;;
68700;SDS011;55682;51.114;5.882;2023-05-10T14:05:32;5.76;;;5.68;;
68700;SDS011;55682;51.114;5.882;2023-05-10T14:07:57;5.60;;;5.49;;
68700;SDS011;55682;51.114;5.882;2023-05-10T14:10:23;4.95;;;4.92;;
68700;SDS011;55682;51.114;5.882;2023-05-10T14:12:49;5.70;;;5.66;;
68700;SDS011;55682;51.114;5.882;2023-05-10T14:15:15;5.59;;;5.50;;
68700;SDS011;55682;51.114;5.882;2023-05-10T14:17:41;5.59;;;5.56;;
68700;SDS011;55682;51.114;5.882;2023-05-10T14:20:06;5.35;;;5.34;;
68700;SDS011;55682;51.114;5.882;2023-05-10T14:22:32;4.71;;;4.70;;
68700;SDS011;55682;51.114;5.882;2023-05-10T14:24:58;5.37;;;5.32;;
68700;SDS011;55682;51.114;5.882;2023-05-10T14:27:24;5.04;;;5.02;;
68700;SDS011;55682;51.114;5.882;2023-05-10T14:29:49;4.92;;;4.88;;
68700;SDS011;55682;51.114;5.882;2023-05-10T14:32:15;4.93;;;4.88;;
68700;SDS011;55682;51.114;5.882;2023-05-10T14:34:40;4.65;;;4.58;;
68700;SDS011;55682;51.114;5.882;2023-05-10T14:37:06;4.33;;;4.29;;
68700;SDS011;55682;51.114;5.882;2023-05-10T14:39:31;4.86;;;4.82;;
68700;SDS011;55682;51.114;5.882;2023-05-10T14:41:58;4.73;;;4.69;;
68700;SDS011;55682;51.114;5.882;2023-05-10T14:44:24;5.44;;;5.35;;
68700;SDS011;55682;51.114;5.882;2023-05-10T14:46:50;4.64;;;4.63;;
68700;SDS011;55682;51.114;5.882;2023-05-10T14:49:16;4.18;;;4.18;;
68700;SDS011;55682;51.114;5.882;2023-05-10T14:51:41;4.50;;;4.47;;
68700;SDS011;55682;51.114;5.882;2023-05-10T14:54:07;4.13;;;4.07;;
68700;SDS011;55682;51.114;5.882;2023-05-10T14:56:33;3.71;;;3.69;;
68700;SDS011;55682;51.114;5.882;2023-05-10T14:59:01;3.61;;;3.59;;
68700;SDS011;55682;51.114;5.882;2023-05-10T15:01:29;3.67;;;3.63;;
68700;SDS011;55682;51.114;5.882;2023-05-10T15:03:54;3.71;;;3.69;;
68700;SDS011;55682;51.114;5.882;2023-05-10T15:06:23;3.52;;;3.51;;
68700;SDS011;55682;51.114;5.882;2023-05-10T15:08:55;3.50;;;3.44;;
68700;SDS011;55682;51.114;5.882;2023-05-10T15:11:20;3.14;;;3.08;;
68700;SDS011;55682;51.114;5.882;2023-05-10T15:13:46;3.10;;;3.06;;
68700;SDS011;55682;51.114;5.882;2023-05-10T15:16:12;3.47;;;3.43;;
68700;SDS011;55682;51.114;5.882;2023-05-10T15:18:37;3.23;;;3.20;;
68700;SDS011;55682;51.114;5.882;2023-05-10T15:21:03;2.65;;;2.64;;
68700;SDS011;55682;51.114;5.882;2023-05-10T15:23:28;2.51;;;2.51;;
68700;SDS011;55682;51.114;5.882;2023-05-10T15:25:55;2.42;;;2.42;;
68700;SDS011;55682;51.114;5.882;2023-05-10T15:28:21;2.38;;;2.38;;
68700;SDS011;55682;51.114;5.882;2023-05-10T15:30:47;2.40;;;2.40;;